sensor_id;sensor_type;location;lat;lon;timestamp;P1;durP1;ratioP1;P2;durP2;ratioP2
75456;SDS011;64036;48.266;14.192;2023-03-17T00:03:21;5.40;;;2.40;;
75456;SDS011;64036;48.266;14.192;2023-03-17T00:10:33;5.00;;;2.20;;
75456;SDS011;64036;48.266;14.192;2023-03-17T00:17:38;3.80;;;2.00;;
75456;SDS011;64036;48.266;14.192;2023-03-17T00:20:51;3.10;;;2.00;;
75456;SDS011;64036;48.266;14.192;2023-03-17T00:30:53;4.70;;;2.20;;
75456;SDS011;64036;48.266;14.192;2023-03-17T00:34:11;4.90;;;2.20;;
75456;SDS011;64036;48.266;14.192;2023-03-17T00:37:19;2.90;;;1.80;;
75456;SDS011;64036;48.266;14.192;2023-03-17T00:58:23;4.60;;;2.50;;
75456;SDS011;64036;48.266;14.192;2023-03-17T01:02:08;5.60;;;2.20;;
75456;SDS011;64036;48.266;14.192;2023-03-17T01:09:24;3.90;;;2.20;;
75456;SDS011;64036;48.266;14.192;2023-03-17T01:21:35;4.00;;;2.10;;
75456;SDS011;64036;48.266;14.192;2023-03-17T01:31:09;2.80;;;1.60;;
75456;SDS011;64036;48.266;14.192;2023-03-17T01:33:54;4.10;;;2.00;;
75456;SDS011;64036;48.266;14.192;2023-03-17T02:07:43;1.60;;;1.50;;
75456;SDS011;64036;48.266;14.192;2023-03-17T02:31:37;3.10;;;2.00;;
75456;SDS011;64036;48.266;14.192;2023-03-17T02:56:11;4.30;;;2.20;;
75456;SDS011;64036;48.266;14.192;2023-03-17T03:03:19;6.70;;;2.90;;
75456;SDS011;64036;48.266;14.192;2023-03-17T03:06:38;2.90;;;1.80;;
75456;SDS011;64036;48.266;14.192;2023-03-17T03:14:01;4.60;;;2.10;;
75456;SDS011;64036;48.266;14.192;2023-03-17T03:28:11;3.90;;;2.20;;
75456;SDS011;64036;48.266;14.192;2023-03-17T03:34:58;4.80;;;2.50;;
75456;SDS011;64036;48.266;14.192;2023-03-17T03:52:47;5.00;;;2.50;;
75456;SDS011;64036;48.266;14.192;2023-03-17T04:03:33;4.70;;;2.40;;
75456;SDS011;64036;48.266;14.192;2023-03-17T04:10:38;4.70;;;2.30;;
75456;SDS011;64036;48.266;14.192;2023-03-17T05:22:18;5.50;;;2.50;;
75456;SDS011;64036;48.266;14.192;2023-03-17T05:50:25;4.60;;;2.80;;
75456;SDS011;64036;48.266;14.192;2023-03-17T05:57:32;5.00;;;2.40;;
75456;SDS011;64036;48.266;14.192;2023-03-17T06:04:17;6.60;;;3.20;;
75456;SDS011;64036;48.266;14.192;2023-03-17T06:07:49;6.50;;;3.20;;
75456;SDS011;64036;48.266;14.192;2023-03-17T06:10:47;8.30;;;3.00;;
75456;SDS011;64036;48.266;14.192;2023-03-17T06:13:54;5.10;;;2.60;;
75456;SDS011;64036;48.266;14.192;2023-03-17T06:17:19;5.10;;;3.00;;
75456;SDS011;64036;48.266;14.192;2023-03-17T06:23:06;5.30;;;3.00;;
75456;SDS011;64036;48.266;14.192;2023-03-17T06:25:48;6.20;;;2.90;;
75456;SDS011;64036;48.266;14.192;2023-03-17T06:28:29;6.30;;;3.10;;
75456;SDS011;64036;48.266;14.192;2023-03-17T06:31:28;5.10;;;3.20;;
75456;SDS011;64036;48.266;14.192;2023-03-17T06:33:56;5.40;;;3.10;;
75456;SDS011;64036;48.266;14.192;2023-03-17T06:36:24;8.70;;;3.60;;
75456;SDS011;64036;48.266;14.192;2023-03-17T06:38:57;6.10;;;3.80;;
75456;SDS011;64036;48.266;14.192;2023-03-17T06:41:29;6.40;;;3.20;;
75456;SDS011;64036;48.266;14.192;2023-03-17T06:43:58;5.80;;;3.20;;
75456;SDS011;64036;48.266;14.192;2023-03-17T06:46:27;6.10;;;3.90;;
75456;SDS011;64036;48.266;14.192;2023-03-17T06:48:58;5.90;;;3.50;;
75456;SDS011;64036;48.266;14.192;2023-03-17T06:53:54;5.50;;;3.20;;
75456;SDS011;64036;48.266;14.192;2023-03-17T06:56:20;5.40;;;2.90;;
75456;SDS011;64036;48.266;14.192;2023-03-17T06:58:46;6.90;;;3.30;;
75456;SDS011;64036;48.266;14.192;2023-03-17T07:01:27;6.80;;;3.20;;
75456;SDS011;64036;48.266;14.192;2023-03-17T07:04:04;6.80;;;2.90;;
75456;SDS011;64036;48.266;14.192;2023-03-17T07:06:30;7.50;;;3.40;;
75456;SDS011;64036;48.266;14.192;2023-03-17T07:08:56;4.70;;;3.20;;
75456;SDS011;64036;48.266;14.192;2023-03-17T07:11:22;5.80;;;3.60;;
75456;SDS011;64036;48.266;14.192;2023-03-17T07:13:49;6.90;;;3.30;;
75456;SDS011;64036;48.266;14.192;2023-03-17T07:16:15;7.30;;;4.10;;
75456;SDS011;64036;48.266;14.192;2023-03-17T07:18:44;6.30;;;3.70;;
75456;SDS011;64036;48.266;14.192;2023-03-17T07:21:10;6.80;;;3.60;;
75456;SDS011;64036;48.266;14.192;2023-03-17T07:23:36;6.10;;;3.50;;
75456;SDS011;64036;48.266;14.192;2023-03-17T07:26:02;8.00;;;3.90;;
75456;SDS011;64036;48.266;14.192;2023-03-17T07:28:28;5.50;;;3.30;;
75456;SDS011;64036;48.266;14.192;2023-03-17T07:30:54;7.50;;;3.70;;
75456;SDS011;64036;48.266;14.192;2023-03-17T07:33:23;5.50;;;3.40;;
75456;SDS011;64036;48.266;14.192;2023-03-17T07:35:50;6.40;;;3.50;;
75456;SDS011;64036;48.266;14.192;2023-03-17T07:38:17;5.10;;;3.30;;
75456;SDS011;64036;48.266;14.192;2023-03-17T07:40:45;5.70;;;3.00;;
75456;SDS011;64036;48.266;14.192;2023-03-17T07:43:14;4.50;;;2.80;;
75456;SDS011;64036;48.266;14.192;2023-03-17T07:45:42;5.90;;;3.40;;
75456;SDS011;64036;48.266;14.192;2023-03-17T07:48:08;6.20;;;3.20;;
75456;SDS011;64036;48.266;14.192;2023-03-17T07:50:35;6.00;;;3.40;;
75456;SDS011;64036;48.266;14.192;2023-03-17T07:53:02;9.00;;;3.70;;
75456;SDS011;64036;48.266;14.192;2023-03-17T07:55:29;6.40;;;3.40;;
75456;SDS011;64036;48.266;14.192;2023-03-17T07:57:56;4.70;;;2.50;;
75456;SDS011;64036;48.266;14.192;2023-03-17T08:00:21;5.90;;;3.20;;
75456;SDS011;64036;48.266;14.192;2023-03-17T08:02:48;6.70;;;2.80;;
75456;SDS011;64036;48.266;14.192;2023-03-17T08:05:15;7.00;;;3.20;;
75456;SDS011;64036;48.266;14.192;2023-03-17T08:07:41;4.90;;;2.90;;
75456;SDS011;64036;48.266;14.192;2023-03-17T08:10:08;6.20;;;3.20;;
75456;SDS011;64036;48.266;14.192;2023-03-17T08:12:38;6.20;;;2.50;;
75456;SDS011;64036;48.266;14.192;2023-03-17T08:15:04;5.70;;;2.60;;
75456;SDS011;64036;48.266;14.192;2023-03-17T08:17:31;4.90;;;2.50;;
75456;SDS011;64036;48.266;14.192;2023-03-17T08:19:57;5.00;;;2.30;;
75456;SDS011;64036;48.266;14.192;2023-03-17T08:22:23;6.10;;;2.60;;
75456;SDS011;64036;48.266;14.192;2023-03-17T08:24:49;4.90;;;2.60;;
75456;SDS011;64036;48.266;14.192;2023-03-17T08:27:16;4.90;;;2.80;;
75456;SDS011;64036;48.266;14.192;2023-03-17T08:29:43;4.40;;;2.50;;
75456;SDS011;64036;48.266;14.192;2023-03-17T08:32:08;4.90;;;2.20;;
75456;SDS011;64036;48.266;14.192;2023-03-17T08:34:34;4.30;;;2.20;;
75456;SDS011;64036;48.266;14.192;2023-03-17T08:37:01;6.00;;;2.40;;
75456;SDS011;64036;48.266;14.192;2023-03-17T08:39:27;4.30;;;2.40;;
75456;SDS011;64036;48.266;14.192;2023-03-17T08:41:54;5.40;;;2.40;;
75456;SDS011;64036;48.266;14.192;2023-03-17T08:44:19;5.10;;;2.40;;
75456;SDS011;64036;48.266;14.192;2023-03-17T08:46:46;6.00;;;2.50;;
75456;SDS011;64036;48.266;14.192;2023-03-17T08:49:14;6.60;;;2.70;;
75456;SDS011;64036;48.266;14.192;2023-03-17T08:51:41;4.60;;;2.30;;
75456;SDS011;64036;48.266;14.192;2023-03-17T08:54:08;6.30;;;2.80;;
75456;SDS011;64036;48.266;14.192;2023-03-17T08:56:34;5.30;;;2.50;;
75456;SDS011;64036;48.266;14.192;2023-03-17T08:59:01;5.50;;;2.40;;
75456;SDS011;64036;48.266;14.192;2023-03-17T09:24:53;6.10;;;2.80;;
75456;SDS011;64036;48.266;14.192;2023-03-17T09:31:10;4.90;;;2.60;;
75456;SDS011;64036;48.266;14.192;2023-03-17T09:55:26;3.90;;;2.40;;
75456;SDS011;64036;48.266;14.192;2023-03-17T11:17:59;6.20;;;2.80;;
75456;SDS011;64036;48.266;14.192;2023-03-17T13:19:15;4.20;;;2.40;;
75456;SDS011;64036;48.266;14.192;2023-03-17T14:36:19;4.60;;;2.30;;
75456;SDS011;64036;48.266;14.192;2023-03-17T15:11:20;5.60;;;2.80;;
75456;SDS011;64036;48.266;14.192;2023-03-17T15:14:18;5.80;;;2.60;;
75456;SDS011;64036;48.266;14.192;2023-03-17T15:16:56;7.30;;;2.70;;
75456;SDS011;64036;48.266;14.192;2023-03-17T15:19:50;4.40;;;2.40;;
75456;SDS011;64036;48.266;14.192;2023-03-17T15:25:25;5.00;;;2.60;;
75456;SDS011;64036;48.266;14.192;2023-03-17T15:27:59;4.00;;;2.20;;
75456;SDS011;64036;48.266;14.192;2023-03-17T15:30:28;6.10;;;2.60;;
75456;SDS011;64036;48.266;14.192;2023-03-17T15:32:59;5.30;;;2.30;;
75456;SDS011;64036;48.266;14.192;2023-03-17T15:35:26;4.70;;;2.50;;
75456;SDS011;64036;48.266;14.192;2023-03-17T15:37:53;4.70;;;2.30;;
75456;SDS011;64036;48.266;14.192;2023-03-17T15:40:20;4.90;;;2.70;;
75456;SDS011;64036;48.266;14.192;2023-03-17T15:42:45;6.20;;;2.30;;
75456;SDS011;64036;48.266;14.192;2023-03-17T15:45:15;4.40;;;2.40;;
75456;SDS011;64036;48.266;14.192;2023-03-17T15:47:43;4.20;;;2.50;;
75456;SDS011;64036;48.266;14.192;2023-03-17T15:50:16;6.10;;;2.40;;
75456;SDS011;64036;48.266;14.192;2023-03-17T15:52:46;4.60;;;2.50;;
75456;SDS011;64036;48.266;14.192;2023-03-17T15:55:30;4.70;;;2.40;;
75456;SDS011;64036;48.266;14.192;2023-03-17T15:57:59;6.40;;;2.20;;
75456;SDS011;64036;48.266;14.192;2023-03-17T16:00:29;5.10;;;2.40;;
75456;SDS011;64036;48.266;14.192;2023-03-17T16:02:58;4.00;;;2.30;;
75456;SDS011;64036;48.266;14.192;2023-03-17T16:05:29;5.40;;;2.50;;
75456;SDS011;64036;48.266;14.192;2023-03-17T16:08:02;5.40;;;2.20;;
75456;SDS011;64036;48.266;14.192;2023-03-17T16:10:30;7.00;;;2.60;;
75456;SDS011;64036;48.266;14.192;2023-03-17T16:12:57;5.20;;;2.60;;
75456;SDS011;64036;48.266;14.192;2023-03-17T16:15:25;4.10;;;2.50;;
75456;SDS011;64036;48.266;14.192;2023-03-17T16:17:55;5.20;;;2.50;;
75456;SDS011;64036;48.266;14.192;2023-03-17T16:20:26;4.70;;;2.50;;
75456;SDS011;64036;48.266;14.192;2023-03-17T16:23:13;5.70;;;2.40;;
75456;SDS011;64036;48.266;14.192;2023-03-17T16:26:05;6.50;;;2.50;;
75456;SDS011;64036;48.266;14.192;2023-03-17T16:28:32;4.20;;;2.40;;
75456;SDS011;64036;48.266;14.192;2023-03-17T16:30:59;4.20;;;2.10;;
75456;SDS011;64036;48.266;14.192;2023-03-17T16:33:37;6.50;;;2.60;;
75456;SDS011;64036;48.266;14.192;2023-03-17T16:36:04;4.40;;;2.40;;
75456;SDS011;64036;48.266;14.192;2023-03-17T16:38:32;4.80;;;2.30;;
75456;SDS011;64036;48.266;14.192;2023-03-17T16:41:06;5.40;;;2.80;;
75456;SDS011;64036;48.266;14.192;2023-03-17T16:43:42;5.70;;;2.50;;
75456;SDS011;64036;48.266;14.192;2023-03-17T16:46:10;6.20;;;2.40;;
75456;SDS011;64036;48.266;14.192;2023-03-17T16:48:36;3.70;;;2.20;;
75456;SDS011;64036;48.266;14.192;2023-03-17T16:51:08;3.60;;;2.10;;
75456;SDS011;64036;48.266;14.192;2023-03-17T16:56:08;5.20;;;2.50;;
75456;SDS011;64036;48.266;14.192;2023-03-17T16:58:47;4.30;;;2.20;;
75456;SDS011;64036;48.266;14.192;2023-03-17T17:01:26;10.90;;;2.70;;
75456;SDS011;64036;48.266;14.192;2023-03-17T17:03:58;4.10;;;2.20;;
75456;SDS011;64036;48.266;14.192;2023-03-17T17:06:24;5.30;;;2.50;;
75456;SDS011;64036;48.266;14.192;2023-03-17T17:08:50;4.50;;;2.30;;
75456;SDS011;64036;48.266;14.192;2023-03-17T17:11:18;5.60;;;2.50;;
75456;SDS011;64036;48.266;14.192;2023-03-17T17:13:46;3.90;;;2.20;;
75456;SDS011;64036;48.266;14.192;2023-03-17T17:16:35;6.70;;;2.60;;
75456;SDS011;64036;48.266;14.192;2023-03-17T17:19:13;4.70;;;2.60;;
75456;SDS011;64036;48.266;14.192;2023-03-17T17:21:41;4.00;;;2.50;;
75456;SDS011;64036;48.266;14.192;2023-03-17T17:24:11;5.40;;;2.70;;
75456;SDS011;64036;48.266;14.192;2023-03-17T17:26:38;5.00;;;2.40;;
75456;SDS011;64036;48.266;14.192;2023-03-17T17:29:07;5.30;;;2.50;;
75456;SDS011;64036;48.266;14.192;2023-03-17T17:31:37;3.80;;;2.30;;
75456;SDS011;64036;48.266;14.192;2023-03-17T17:34:06;6.20;;;2.70;;
75456;SDS011;64036;48.266;14.192;2023-03-17T17:36:31;6.20;;;2.70;;
75456;SDS011;64036;48.266;14.192;2023-03-17T17:39:02;5.30;;;2.70;;
75456;SDS011;64036;48.266;14.192;2023-03-17T17:41:40;6.50;;;2.80;;
75456;SDS011;64036;48.266;14.192;2023-03-17T17:44:06;5.60;;;2.40;;
75456;SDS011;64036;48.266;14.192;2023-03-17T17:46:37;4.90;;;2.90;;
75456;SDS011;64036;48.266;14.192;2023-03-17T17:49:06;5.60;;;2.80;;
75456;SDS011;64036;48.266;14.192;2023-03-17T17:51:35;5.60;;;2.60;;
75456;SDS011;64036;48.266;14.192;2023-03-17T17:54:01;6.30;;;3.30;;
75456;SDS011;64036;48.266;14.192;2023-03-17T17:56:38;6.90;;;2.60;;
75456;SDS011;64036;48.266;14.192;2023-03-17T17:59:08;7.70;;;3.00;;
75456;SDS011;64036;48.266;14.192;2023-03-17T18:01:34;5.40;;;2.70;;
75456;SDS011;64036;48.266;14.192;2023-03-17T18:04:03;6.90;;;3.10;;
75456;SDS011;64036;48.266;14.192;2023-03-17T18:06:28;5.70;;;2.70;;
75456;SDS011;64036;48.266;14.192;2023-03-17T18:08:57;7.10;;;3.00;;
75456;SDS011;64036;48.266;14.192;2023-03-17T18:11:38;6.10;;;2.70;;
75456;SDS011;64036;48.266;14.192;2023-03-17T18:14:10;7.80;;;2.80;;
75456;SDS011;64036;48.266;14.192;2023-03-17T18:16:40;6.30;;;2.70;;
75456;SDS011;64036;48.266;14.192;2023-03-17T18:19:15;5.10;;;2.50;;
75456;SDS011;64036;48.266;14.192;2023-03-17T18:21:52;5.00;;;2.50;;
75456;SDS011;64036;48.266;14.192;2023-03-17T18:24:20;5.30;;;2.50;;
75456;SDS011;64036;48.266;14.192;2023-03-17T18:26:49;5.00;;;2.50;;
75456;SDS011;64036;48.266;14.192;2023-03-17T18:29:25;5.50;;;2.40;;
75456;SDS011;64036;48.266;14.192;2023-03-17T18:32:13;3.50;;;1.80;;
75456;SDS011;64036;48.266;14.192;2023-03-17T18:34:42;5.00;;;2.30;;
75456;SDS011;64036;48.266;14.192;2023-03-17T18:37:14;5.90;;;2.40;;
75456;SDS011;64036;48.266;14.192;2023-03-17T18:39:44;6.20;;;2.80;;
75456;SDS011;64036;48.266;14.192;2023-03-17T18:42:16;5.10;;;2.60;;
75456;SDS011;64036;48.266;14.192;2023-03-17T18:44:45;6.00;;;2.70;;
75456;SDS011;64036;48.266;14.192;2023-03-17T18:47:16;4.30;;;2.50;;
75456;SDS011;64036;48.266;14.192;2023-03-17T18:49:50;6.00;;;2.70;;
75456;SDS011;64036;48.266;14.192;2023-03-17T18:52:37;5.20;;;2.40;;
75456;SDS011;64036;48.266;14.192;2023-03-17T18:55:05;6.10;;;2.60;;
75456;SDS011;64036;48.266;14.192;2023-03-17T18:57:45;3.80;;;2.30;;
75456;SDS011;64036;48.266;14.192;2023-03-17T19:00:20;5.20;;;2.40;;
75456;SDS011;64036;48.266;14.192;2023-03-17T19:02:58;6.90;;;2.60;;
75456;SDS011;64036;48.266;14.192;2023-03-17T19:05:36;9.30;;;4.40;;
75456;SDS011;64036;48.266;14.192;2023-03-17T19:08:12;7.10;;;2.70;;
75456;SDS011;64036;48.266;14.192;2023-03-17T19:10:53;4.30;;;2.50;;
75456;SDS011;64036;48.266;14.192;2023-03-17T19:13:22;4.70;;;2.30;;
75456;SDS011;64036;48.266;14.192;2023-03-17T19:21:08;5.20;;;2.40;;
75456;SDS011;64036;48.266;14.192;2023-03-17T19:23:44;5.60;;;2.60;;
75456;SDS011;64036;48.266;14.192;2023-03-17T19:26:33;6.50;;;2.70;;
75456;SDS011;64036;48.266;14.192;2023-03-17T19:29:12;5.70;;;2.80;;
75456;SDS011;64036;48.266;14.192;2023-03-17T19:31:59;5.40;;;2.60;;
75456;SDS011;64036;48.266;14.192;2023-03-17T19:34:46;4.90;;;2.50;;
75456;SDS011;64036;48.266;14.192;2023-03-17T19:37:26;6.80;;;2.50;;
75456;SDS011;64036;48.266;14.192;2023-03-17T19:40:00;5.10;;;2.50;;
75456;SDS011;64036;48.266;14.192;2023-03-17T19:42:50;5.70;;;2.30;;
75456;SDS011;64036;48.266;14.192;2023-03-17T19:45:21;3.50;;;2.00;;
75456;SDS011;64036;48.266;14.192;2023-03-17T19:47:50;6.10;;;2.20;;
75456;SDS011;64036;48.266;14.192;2023-03-17T19:50:16;6.90;;;2.40;;
75456;SDS011;64036;48.266;14.192;2023-03-17T19:52:42;8.10;;;2.70;;
75456;SDS011;64036;48.266;14.192;2023-03-17T19:55:14;5.60;;;2.70;;
75456;SDS011;64036;48.266;14.192;2023-03-17T19:58:00;10.80;;;2.90;;
75456;SDS011;64036;48.266;14.192;2023-03-17T20:00:44;6.00;;;2.50;;
75456;SDS011;64036;48.266;14.192;2023-03-17T20:03:29;7.80;;;2.80;;
75456;SDS011;64036;48.266;14.192;2023-03-17T20:06:01;4.80;;;2.30;;
75456;SDS011;64036;48.266;14.192;2023-03-17T20:08:43;5.90;;;2.50;;
75456;SDS011;64036;48.266;14.192;2023-03-17T20:11:10;6.30;;;2.90;;
75456;SDS011;64036;48.266;14.192;2023-03-17T20:13:39;3.60;;;2.20;;
75456;SDS011;64036;48.266;14.192;2023-03-17T20:16:16;7.00;;;3.20;;
75456;SDS011;64036;48.266;14.192;2023-03-17T20:21:55;7.10;;;3.70;;
75456;SDS011;64036;48.266;14.192;2023-03-17T20:24:24;7.50;;;3.90;;
75456;SDS011;64036;48.266;14.192;2023-03-17T20:26:54;6.00;;;3.70;;
75456;SDS011;64036;48.266;14.192;2023-03-17T20:29:31;5.40;;;3.30;;
75456;SDS011;64036;48.266;14.192;2023-03-17T20:34:46;7.90;;;3.50;;
75456;SDS011;64036;48.266;14.192;2023-03-17T20:37:16;6.70;;;3.20;;
75456;SDS011;64036;48.266;14.192;2023-03-17T20:39:58;6.80;;;3.70;;
75456;SDS011;64036;48.266;14.192;2023-03-17T20:42:34;6.30;;;3.20;;
75456;SDS011;64036;48.266;14.192;2023-03-17T20:45:11;6.40;;;3.30;;
75456;SDS011;64036;48.266;14.192;2023-03-17T20:48:04;7.10;;;3.10;;
75456;SDS011;64036;48.266;14.192;2023-03-17T20:50:53;5.80;;;3.10;;
75456;SDS011;64036;48.266;14.192;2023-03-17T20:56:40;6.40;;;2.80;;
75456;SDS011;64036;48.266;14.192;2023-03-17T20:59:27;8.40;;;2.70;;
75456;SDS011;64036;48.266;14.192;2023-03-17T21:01:57;6.60;;;2.70;;
75456;SDS011;64036;48.266;14.192;2023-03-17T21:04:32;5.80;;;2.70;;
75456;SDS011;64036;48.266;14.192;2023-03-17T21:07:07;7.30;;;2.70;;
75456;SDS011;64036;48.266;14.192;2023-03-17T21:09:39;8.00;;;2.70;;
75456;SDS011;64036;48.266;14.192;2023-03-17T21:15:29;7.70;;;2.90;;
75456;SDS011;64036;48.266;14.192;2023-03-17T21:18:01;6.50;;;3.20;;
75456;SDS011;64036;48.266;14.192;2023-03-17T21:24:13;5.50;;;3.00;;
75456;SDS011;64036;48.266;14.192;2023-03-17T21:26:52;6.70;;;3.00;;
75456;SDS011;64036;48.266;14.192;2023-03-17T21:29:31;5.40;;;2.90;;
75456;SDS011;64036;48.266;14.192;2023-03-17T21:32:03;5.50;;;2.90;;
75456;SDS011;64036;48.266;14.192;2023-03-17T21:37:15;5.30;;;2.70;;
75456;SDS011;64036;48.266;14.192;2023-03-17T21:43:15;5.50;;;2.70;;
75456;SDS011;64036;48.266;14.192;2023-03-17T21:46:04;7.60;;;3.10;;
75456;SDS011;64036;48.266;14.192;2023-03-17T21:48:34;6.50;;;2.80;;
75456;SDS011;64036;48.266;14.192;2023-03-17T21:51:09;8.20;;;2.90;;
75456;SDS011;64036;48.266;14.192;2023-03-17T22:06:59;6.20;;;2.70;;
75456;SDS011;64036;48.266;14.192;2023-03-17T22:09:42;7.90;;;3.60;;
75456;SDS011;64036;48.266;14.192;2023-03-17T22:12:08;6.10;;;3.40;;
75456;SDS011;64036;48.266;14.192;2023-03-17T22:14:36;7.80;;;3.50;;
75456;SDS011;64036;48.266;14.192;2023-03-17T22:17:03;5.90;;;2.80;;
75456;SDS011;64036;48.266;14.192;2023-03-17T22:22:28;6.10;;;3.20;;
75456;SDS011;64036;48.266;14.192;2023-03-17T22:25:14;7.00;;;3.10;;
75456;SDS011;64036;48.266;14.192;2023-03-17T22:28:02;5.50;;;2.80;;
75456;SDS011;64036;48.266;14.192;2023-03-17T22:34:13;5.50;;;3.00;;
75456;SDS011;64036;48.266;14.192;2023-03-17T22:36:53;6.50;;;3.30;;
75456;SDS011;64036;48.266;14.192;2023-03-17T22:39:29;6.40;;;2.70;;
75456;SDS011;64036;48.266;14.192;2023-03-17T22:41:58;6.30;;;2.90;;
75456;SDS011;64036;48.266;14.192;2023-03-17T22:44:38;5.30;;;2.80;;
75456;SDS011;64036;48.266;14.192;2023-03-17T22:47:35;6.30;;;2.70;;
75456;SDS011;64036;48.266;14.192;2023-03-17T22:52:48;6.30;;;3.20;;
75456;SDS011;64036;48.266;14.192;2023-03-17T22:55:17;5.60;;;2.90;;
75456;SDS011;64036;48.266;14.192;2023-03-17T23:00:41;5.10;;;2.60;;
75456;SDS011;64036;48.266;14.192;2023-03-17T23:03:28;5.40;;;2.80;;
75456;SDS011;64036;48.266;14.192;2023-03-17T23:09:41;4.50;;;2.60;;
75456;SDS011;64036;48.266;14.192;2023-03-17T23:12:58;7.60;;;3.30;;
75456;SDS011;64036;48.266;14.192;2023-03-17T23:18:43;6.70;;;3.20;;
75456;SDS011;64036;48.266;14.192;2023-03-17T23:26:57;6.10;;;2.70;;
75456;SDS011;64036;48.266;14.192;2023-03-17T23:29:40;5.50;;;3.20;;
75456;SDS011;64036;48.266;14.192;2023-03-17T23:32:23;4.90;;;2.60;;
75456;SDS011;64036;48.266;14.192;2023-03-17T23:35:24;5.20;;;2.80;;
75456;SDS011;64036;48.266;14.192;2023-03-17T23:38:03;4.20;;;2.20;;
75456;SDS011;64036;48.266;14.192;2023-03-17T23:41:04;5.70;;;3.20;;
75456;SDS011;64036;48.266;14.192;2023-03-17T23:43:44;5.20;;;3.00;;
75456;SDS011;64036;48.266;14.192;2023-03-17T23:46:23;5.30;;;2.90;;
75456;SDS011;64036;48.266;14.192;2023-03-17T23:49:15;6.20;;;3.10;;
75456;SDS011;64036;48.266;14.192;2023-03-17T23:52:04;6.40;;;2.80;;
75456;SDS011;64036;48.266;14.192;2023-03-17T23:58:23;5.90;;;2.90;;
